Terminal Aerodrome Forecast
Issued by NWS

Home | Current Version | Previous Version | Graphics & Text | Print | Product List | Glossary Off
Versions: 1 2 3 4 5 6 7 8 9 10 11 12 13 14 15 16 17 18 19 20 21 22 23 24

000
FTUS43 KDDC 191120
TAFHYS
TAF
KHYS 191120Z 1912/2012 00000KT 2SM BR SKC
     FM191700 18012KT P6SM SCT150
     FM200200 16015G23KT P6SM VCSH OVC045
     FM200300 16015G24KT P6SM OVC020
     FM200900 18013KT P6SM BKN080
     FM201100 21011KT P6SM OVC040=

USA.gov is the U.S. government's official web portal to all federal, state and local government web resources and services.